»·PEaware :: QXE400 L35-KLAS

QXE400 :: L35-KLAS

FLIGHT INFORMATION

Flight Status: Arrived
Operator:
Horizon Air
More flights by this operator :: More flights under this callsign
Pilot: Ryan B. (29)
Aircraft: DEHAVILLAND DASH 8 400
(DH8D)
More flights by this aircraft type
Origin: L35 Big Bear City
United States
Destination: KLAS McCarran Intl
United States
More flights between these airports :: More routes between these airports
Route: +OKACO1 OKACO V386 SOGGI MISEN KEPEC6
File this flight plan on PilotEdge
Remarks:
Altitude:
(Current/Filed)
210ft
Speed:
(Current/Filed)
330kts
Departed: 12-Dec-17 02:22 PM
Arrived: 12-Dec-17 03:00 PM
Distance/Time
Traveled:
137nm/0:38
Distance/Time
To Go:
Arrived

Flight Plot

Page will automatically refresh every two minutes.

Flight plan parsing failed; only flown route is shown


Map Options




Map Legend


Flown Route
Filed Route
Departure Airport
Arrival Airport
Navaid (VOR, NDB)
Fix

Horizontal Profiles

Position Reports

Time Latitude Longitude Heading Altitude Ground
Speed
12-Dec-17 14:17 34.262887 -116.853732 90 6759ft 0kts
12-Dec-17 14:18 34.262887 -116.853732 90 6759ft 0kts
12-Dec-17 14:19 34.262887 -116.853732 90 6759ft 0kts
12-Dec-17 14:20 34.262887 -116.853732 90 6759ft 0kts
12-Dec-17 14:21 34.262887 -116.853732 90 6759ft 0kts
12-Dec-17 14:22 34.262887 -116.853732 90 6759ft 0kts
12-Dec-17 14:23 34.262887 -116.853732 90 6759ft 0kts
12-Dec-17 14:24 34.262887 -116.853732 90 6759ft 0kts
12-Dec-17 14:25 34.262887 -116.853732 90 6759ft 0kts
12-Dec-17 14:26 34.263244 -116.854703 269 6759ft 20kts
12-Dec-17 14:27 34.263184 -116.864860 270 6759ft 19kts
12-Dec-17 14:28 34.263770 -116.863097 89 6759ft 52kts
12-Dec-17 14:29 34.265056 -116.819901 85 8172ft 156kts
12-Dec-17 14:30 34.266617 -116.765599 88 9822ft 202kts
12-Dec-17 14:31 34.265942 -116.689269 89 11900ft 225kts
12-Dec-17 14:32 34.282673 -116.627769 30 14780ft 221kts
12-Dec-17 14:33 34.343816 -116.620725 352 17382ft 241kts
12-Dec-17 14:34 34.410035 -116.640847 344 20150ft 253kts
12-Dec-17 14:35 34.481978 -116.669539 345 20949ft 298kts
12-Dec-17 14:36 34.560982 -116.651923 22 21307ft 306kts
12-Dec-17 14:37 34.642719 -116.614600 23 21321ft 323kts
12-Dec-17 14:38 34.726242 -116.577122 25 21295ft 332kts
12-Dec-17 14:39 34.812347 -116.537039 24 21293ft 337kts
12-Dec-17 14:40 34.900198 -116.495946 26 21292ft 338kts
12-Dec-17 14:41 34.960697 -116.416936 57 21293ft 325kts
12-Dec-17 14:42 35.013371 -116.331771 56 21293ft 327kts
12-Dec-17 14:43 35.068342 -116.242649 56 20531ft 341kts
12-Dec-17 14:44 35.124805 -116.150873 56 19502ft 341kts
12-Dec-17 14:45 35.180034 -116.060159 55 18029ft 336kts
12-Dec-17 14:46 35.235433 -115.969648 55 16537ft 332kts
12-Dec-17 14:47 35.289014 -115.882298 55 15081ft 329kts
12-Dec-17 14:48 35.341980 -115.795786 55 13615ft 321kts
12-Dec-17 14:49 35.393639 -115.711266 55 12111ft 295kts
12-Dec-17 14:50 35.440471 -115.634358 55 10637ft 281kts
12-Dec-17 14:51 35.484685 -115.561725 54 10038ft 281kts
12-Dec-17 14:52 35.532049 -115.489895 49 10003ft 286kts
12-Dec-17 14:53 35.582134 -115.423790 49 8750ft 274kts
12-Dec-17 14:54 35.627271 -115.362769 48 7333ft 240kts
12-Dec-17 14:55 35.670939 -115.304078 46 7033ft 250kts
12-Dec-17 14:56 35.715765 -115.243978 46 7021ft 244kts
12-Dec-17 14:57 35.759650 -115.184663 47 7025ft 241kts
12-Dec-17 14:58 35.819367 -115.157622 12 7026ft 241kts
12-Dec-17 14:59 35.881525 -115.141757 12 7026ft 241kts
12-Dec-17 15:00 35.944758 -115.126141 12 7026ft 240kts
12-Dec-17 15:01 36.010269 -115.109978 12 5916ft 245kts
12-Dec-17 15:02 36.074177 -115.093980 12 4644ft 236kts
12-Dec-17 15:03 36.135384 -115.086148 333 3973ft 211kts
12-Dec-17 15:04 36.139587 -115.140251 198 3528ft 169kts
12-Dec-17 15:05 36.095828 -115.158655 204 2207ft 158kts
12-Dec-17 15:06 36.078046 -115.169594 293 2188ft 11kts
12-Dec-17 15:07 36.081112 -115.169453 24 2188ft 6kts
12-Dec-17 15:08 36.080728 -115.171009 211 2188ft 0kts
12-Dec-17 15:09 36.080728 -115.171009 211 2188ft 0kts
12-Dec-17 15:10 36.080728 -115.171009 211 2188ft 0kts
12-Dec-17 15:11 36.080728 -115.171009 211 2188ft 0kts
12-Dec-17 15:12 36.080728 -115.171009 211 2188ft 0kts

Navigation Log

Ident Type
Flight plan parsing failed, navigation log unavailable